createdAt,value
2019-03-05T00:01:35.951Z,0.50
2019-03-05T00:04:04.905Z,0.93
2019-03-05T00:06:33.311Z,0.83
2019-03-05T00:09:01.624Z,1.00
2019-03-05T00:11:30.009Z,1.13
2019-03-05T00:13:58.909Z,1.07
2019-03-05T00:16:28.228Z,0.73
2019-03-05T00:18:57.037Z,0.37
2019-03-05T00:21:25.748Z,0.93
2019-03-05T00:23:57.728Z,0.63
2019-03-05T00:26:36.778Z,0.77
2019-03-05T00:29:20.440Z,0.87
2019-03-05T00:31:49.585Z,0.93
2019-03-05T00:34:43.239Z,1.10
2019-03-05T00:37:17.622Z,0.73
2019-03-05T00:40:14.233Z,1.10
2019-03-05T00:43:07.168Z,0.70
2019-03-05T00:46:15.860Z,0.77
2019-03-05T00:48:51.705Z,0.77
2019-03-05T00:51:54.602Z,0.70
2019-03-05T00:55:00.430Z,1.13
2019-03-05T00:57:54.056Z,0.80
2019-03-05T01:00:37.046Z,0.43
2019-03-05T01:03:22.087Z,0.40
2019-03-05T01:06:21.741Z,0.80
2019-03-05T01:08:50.917Z,0.37
2019-03-05T01:11:20.400Z,1.03
2019-03-05T01:13:49.747Z,0.30
2019-03-05T01:16:22.253Z,0.60
2019-03-05T01:18:51.161Z,0.47
2019-03-05T01:21:19.796Z,0.63
2019-03-05T01:23:48.772Z,0.40
2019-03-05T01:26:17.987Z,0.80
2019-03-05T01:28:47.040Z,0.40
2019-03-05T01:31:30.641Z,0.40
2019-03-05T01:34:09.993Z,0.42
2019-03-05T01:36:41.930Z,0.57
2019-03-05T01:39:22.853Z,0.40
2019-03-05T01:41:51.872Z,0.80
2019-03-05T01:44:20.723Z,0.40
2019-03-05T01:46:49.760Z,0.50
2019-03-05T01:49:18.647Z,0.40
2019-03-05T01:51:47.498Z,0.50
2019-03-05T01:54:16.565Z,0.60
2019-03-05T01:56:45.517Z,0.45
2019-03-05T01:59:14.386Z,0.82
2019-03-05T02:01:43.368Z,0.85
2019-03-05T02:04:12.232Z,0.40
2019-03-05T02:06:41.176Z,0.45
2019-03-05T04:57:09.820Z,0.60
2019-03-05T04:59:38.592Z,1.20
2019-03-05T05:02:07.399Z,1.27
2019-03-05T05:04:36.181Z,1.07
2019-03-05T05:07:05.165Z,0.80
2019-03-05T05:09:33.945Z,0.85
2019-03-05T05:12:02.722Z,1.57
2019-03-05T05:14:31.472Z,0.93
2019-03-05T05:17:00.241Z,1.47
2019-03-05T05:19:29.001Z,1.00
2019-03-05T05:21:57.776Z,1.03
2019-03-05T05:24:26.860Z,1.10
2019-03-05T05:26:55.712Z,0.80
2019-03-05T05:29:24.547Z,1.90
2019-03-05T05:31:53.357Z,1.50
2019-03-05T05:34:22.129Z,1.22
2019-03-05T05:36:50.941Z,1.33
2019-03-05T05:39:37.537Z,1.07
2019-03-05T05:42:06.337Z,1.00
2019-03-05T05:44:35.622Z,1.47
2019-03-05T05:47:04.389Z,1.47
2019-03-05T05:49:33.152Z,1.20
2019-03-05T05:52:01.916Z,1.43
2019-03-05T05:54:30.779Z,1.40
2019-03-05T05:56:59.558Z,1.20
2019-03-05T05:59:28.341Z,1.33
2019-03-05T06:01:57.122Z,1.10
2019-03-05T06:04:25.884Z,1.00
2019-03-05T06:06:54.691Z,1.20
2019-03-05T06:09:23.084Z,1.00
2019-03-05T06:11:51.857Z,1.10
2019-03-05T06:14:20.659Z,1.00
2019-03-05T06:16:49.448Z,1.90
2019-03-05T06:19:18.210Z,1.17
2019-03-05T06:21:47.068Z,1.20
2019-03-05T06:24:15.825Z,1.70
2019-03-05T06:26:44.636Z,1.00
2019-03-05T06:29:12.946Z,1.50
2019-03-05T06:31:41.794Z,1.43
2019-03-05T06:34:10.556Z,1.40
2019-03-05T06:36:55.054Z,1.07
2019-03-05T06:39:23.384Z,1.53
2019-03-05T06:41:51.773Z,1.57
2019-03-05T06:44:20.549Z,1.00
2019-03-05T06:46:49.417Z,1.07
2019-03-05T06:49:17.745Z,1.20
2019-03-05T06:51:46.532Z,1.07
2019-03-05T06:54:15.344Z,0.77
2019-03-05T06:56:44.108Z,1.10
2019-03-05T06:59:12.948Z,1.30
2019-03-05T07:01:41.717Z,1.00
2019-03-05T07:04:10.570Z,1.03
2019-03-05T07:06:58.461Z,1.00
2019-03-05T07:09:58.336Z,1.10
2019-03-05T07:12:56.440Z,0.80
2019-03-05T07:16:06.186Z,1.10
2019-03-05T07:19:15.321Z,0.70
2019-03-05T07:22:12.842Z,1.10
2019-03-05T07:24:46.274Z,1.23
2019-03-05T07:27:17.637Z,1.03
2019-03-05T07:29:46.401Z,1.37
2019-03-05T07:32:15.245Z,1.03
2019-03-05T07:34:45.777Z,1.10
2019-03-05T07:37:14.709Z,1.00
2019-03-05T07:39:43.483Z,0.90
2019-03-05T07:42:12.321Z,1.10
2019-03-05T07:44:41.092Z,0.97
2019-03-05T07:47:09.400Z,0.63
2019-03-05T07:49:43.626Z,0.60
2019-03-05T07:52:08.209Z,0.70
2019-03-05T07:54:36.992Z,1.43
2019-03-05T07:57:05.972Z,1.00
2019-03-05T07:59:34.741Z,0.87
2019-03-05T08:02:03.751Z,0.70
2019-03-05T08:04:32.534Z,0.80
2019-03-05T08:07:01.546Z,1.03
2019-03-05T08:09:30.796Z,0.60
2019-03-05T08:12:22.269Z,0.53
2019-03-05T08:14:58.107Z,0.43
2019-03-05T08:17:27.005Z,0.63
2019-03-05T08:19:55.861Z,0.93
2019-03-05T08:22:25.178Z,0.70
2019-03-05T08:24:53.987Z,0.60
2019-03-05T08:27:22.750Z,0.53
2019-03-05T08:29:51.529Z,1.00
2019-03-05T08:32:20.293Z,0.40
2019-03-05T08:34:49.115Z,0.73
2019-03-05T08:37:17.908Z,0.50
2019-03-05T08:39:46.736Z,0.87
2019-03-05T08:42:15.136Z,0.80
2019-03-05T08:44:50.560Z,0.60
2019-03-05T08:47:14.161Z,1.00
2019-03-05T08:49:42.993Z,0.53
2019-03-05T08:52:11.761Z,0.57
2019-03-05T08:54:40.796Z,0.60
2019-03-05T08:57:09.642Z,0.47
2019-03-05T08:59:38.487Z,0.60
2019-03-05T09:02:07.413Z,0.37
2019-03-05T09:04:36.249Z,0.50
2019-03-05T09:07:05.100Z,0.60
2019-03-05T09:09:33.860Z,0.60
2019-03-05T09:12:02.266Z,0.93
2019-03-05T09:14:31.021Z,0.53
2019-03-05T09:16:59.857Z,0.77
2019-03-05T09:19:28.695Z,0.83
2019-03-05T09:21:57.468Z,0.60
2019-03-05T09:24:25.853Z,1.20
2019-03-05T09:26:54.878Z,2.30
2019-03-05T09:29:23.643Z,0.90
2019-03-05T09:31:52.412Z,0.93
2019-03-05T09:34:21.189Z,1.17
2019-03-05T09:36:51.297Z,0.40
2019-03-05T09:39:19.713Z,1.17
2019-03-05T09:41:48.648Z,1.30
2019-03-05T09:44:17.484Z,1.07
2019-03-05T09:46:46.273Z,0.80
2019-03-05T09:49:15.013Z,2.00
2019-03-05T09:51:43.789Z,1.20
2019-03-05T09:54:12.588Z,1.00
2019-03-05T09:56:41.369Z,0.57
2019-03-05T09:59:10.216Z,0.87
2019-03-05T10:01:39.052Z,0.50
2019-03-05T10:04:07.913Z,2.27
2019-03-05T10:06:36.749Z,0.77
2019-03-05T10:09:07.589Z,1.30
2019-03-05T10:11:36.414Z,0.97
2019-03-05T10:14:05.336Z,0.57
2019-03-05T10:16:33.723Z,0.80
2019-03-05T10:19:02.522Z,0.57
2019-03-05T10:21:31.348Z,1.10
2019-03-05T10:24:09.951Z,1.90
2019-03-05T10:26:31.117Z,1.47
2019-03-05T10:29:00.036Z,0.53
2019-03-05T10:31:28.868Z,0.50
2019-03-05T10:33:57.665Z,0.70
2019-03-05T10:36:26.040Z,0.60
2019-03-05T10:38:57.637Z,0.60
2019-03-05T10:41:25.701Z,0.93
2019-03-05T10:43:54.574Z,0.80
2019-03-05T10:46:23.336Z,0.60
2019-03-05T10:48:51.740Z,0.60
2019-03-05T10:51:20.817Z,0.53
2019-03-05T10:53:49.741Z,0.47
2019-03-05T10:56:23.612Z,0.40
2019-03-05T10:58:52.393Z,0.53
2019-03-05T11:01:21.225Z,0.40
2019-03-05T11:03:50.140Z,0.50
2019-03-05T11:06:19.118Z,0.80
2019-03-05T11:08:47.605Z,0.57
2019-03-05T11:11:16.772Z,0.70
2019-03-05T11:13:45.185Z,0.40
2019-03-05T11:16:13.568Z,0.40
2019-03-05T11:18:41.958Z,0.60
2019-03-05T11:21:10.795Z,0.50
2019-03-05T11:23:40.190Z,0.40
2019-03-05T11:26:08.961Z,0.40
2019-03-05T11:28:37.856Z,0.60
2019-03-05T11:31:07.466Z,0.50
2019-03-05T11:33:36.348Z,0.50
2019-03-05T11:36:06.057Z,0.60
2019-03-05T11:38:35.024Z,0.60
2019-03-05T11:41:03.483Z,0.53
2019-03-05T11:43:31.856Z,0.47
2019-03-05T11:46:03.237Z,0.57
2019-03-05T11:48:31.644Z,0.67
2019-03-05T11:51:00.446Z,0.50
2019-03-05T11:53:29.393Z,0.80
2019-03-05T11:55:58.187Z,0.70
2019-03-05T11:58:26.952Z,0.40
2019-03-05T12:01:23.877Z,0.60
2019-03-05T12:03:52.717Z,0.70
2019-03-05T12:06:21.484Z,0.57
2019-03-05T12:08:50.273Z,0.50
2019-03-05T12:11:19.225Z,0.60
2019-03-05T12:13:47.615Z,0.50
2019-03-05T12:16:16.861Z,0.53
2019-03-05T12:18:45.715Z,0.67
2019-03-05T12:21:14.644Z,0.70
2019-03-05T12:23:47.011Z,0.60
2019-03-05T12:26:13.641Z,0.90
2019-03-05T12:28:42.684Z,0.80
2019-03-05T12:31:11.617Z,0.87
2019-03-05T12:33:40.517Z,0.97
2019-03-05T12:36:09.443Z,0.77
2019-03-05T12:38:37.809Z,0.60
2019-03-05T12:41:06.659Z,1.13
2019-03-05T12:43:35.682Z,0.80
2019-03-05T12:46:04.633Z,1.37
2019-03-05T12:48:40.036Z,1.17
2019-03-05T12:51:04.273Z,0.90
2019-03-05T12:53:33.104Z,0.50
2019-03-05T12:56:01.965Z,0.70
2019-03-05T12:58:30.733Z,1.10
2019-03-05T13:00:59.589Z,0.30
2019-03-05T13:03:28.392Z,1.13
2019-03-05T13:05:57.407Z,1.17
2019-03-05T13:08:28.623Z,0.80
2019-03-05T13:10:56.741Z,0.60
2019-03-05T13:13:25.580Z,0.50
2019-03-05T13:15:56.555Z,0.50
2019-03-05T13:18:26.777Z,0.50
2019-03-05T13:20:55.763Z,0.40
2019-03-05T13:23:24.592Z,0.40
2019-03-05T13:25:52.920Z,0.70
2019-03-05T13:28:21.755Z,0.57
2019-03-05T13:30:50.661Z,1.10
2019-03-05T13:33:19.425Z,0.90
2019-03-05T13:35:48.253Z,0.57
2019-03-05T13:38:17.117Z,0.77
2019-03-05T13:40:45.516Z,0.53
2019-03-05T13:43:14.355Z,0.70
2019-03-05T13:45:49.226Z,0.40
2019-03-05T13:48:35.702Z,1.30
2019-03-05T13:51:50.686Z,0.73
2019-03-05T13:54:48.561Z,0.50
2019-03-05T13:57:46.872Z,0.60
2019-03-05T14:00:15.341Z,0.50
2019-03-05T14:03:00.002Z,0.60
2019-03-05T14:05:54.078Z,0.60
2019-03-05T14:08:48.936Z,0.60
2019-03-05T14:11:17.784Z,0.73
2019-03-05T14:13:46.622Z,0.47
2019-03-05T14:16:17.562Z,0.60
2019-03-05T14:18:46.405Z,0.50
2019-03-05T14:21:15.257Z,0.77
2019-03-05T14:23:44.236Z,0.40
2019-03-05T14:26:12.566Z,0.67
2019-03-05T14:28:41.713Z,0.60
2019-03-05T14:31:10.637Z,0.90
2019-03-05T14:33:39.582Z,0.50
2019-03-05T14:36:08.436Z,0.63
2019-03-05T14:38:37.356Z,0.70
2019-03-05T14:41:06.200Z,0.73
2019-03-05T14:43:35.311Z,0.77
2019-03-05T14:46:04.517Z,0.60
2019-03-05T14:48:33.418Z,0.60
2019-03-05T14:51:02.547Z,0.73
2019-03-05T14:53:31.377Z,0.90
2019-03-05T14:56:00.243Z,0.90
2019-03-05T14:58:29.013Z,0.73
2019-03-05T15:00:58.384Z,0.70
2019-03-05T15:03:27.193Z,0.90
2019-03-05T15:05:56.183Z,0.70
2019-03-05T15:08:25.337Z,0.60
2019-03-05T15:10:53.729Z,0.60
2019-03-05T15:13:22.727Z,0.83
2019-03-05T15:15:51.563Z,0.83
2019-03-05T15:18:19.996Z,0.90
2019-03-05T15:20:49.144Z,0.60
2019-03-05T15:23:17.919Z,0.57
2019-03-05T15:25:46.773Z,0.80
2019-03-05T15:28:15.199Z,0.80
2019-03-05T15:30:44.151Z,1.10
2019-03-05T15:33:12.956Z,0.60
2019-03-05T15:35:41.338Z,0.70
2019-03-05T15:38:09.697Z,0.90
2019-03-05T15:40:38.122Z,0.63
2019-03-05T15:43:07.063Z,0.70
2019-03-05T15:45:35.581Z,0.80
2019-03-05T15:48:04.451Z,0.60
2019-03-05T15:50:33.303Z,0.70
2019-03-05T15:53:02.193Z,1.10
2019-03-05T15:55:31.008Z,0.60
2019-03-05T15:57:59.867Z,0.90
2019-03-05T16:00:30.051Z,0.83
2019-03-05T16:02:59.298Z,1.03
2019-03-05T16:05:28.458Z,0.90
2019-03-05T16:07:57.400Z,1.10
2019-03-05T16:10:25.729Z,1.00
2019-03-05T16:12:54.500Z,1.07
2019-03-05T16:15:23.441Z,1.20
2019-03-05T16:17:54.317Z,0.70
2019-03-05T16:20:25.863Z,1.03
2019-03-05T16:22:55.017Z,0.77
2019-03-05T16:25:23.909Z,0.57
2019-03-05T16:27:52.800Z,1.13
2019-03-05T16:30:39.600Z,0.60
2019-03-05T16:33:32.597Z,0.97
2019-03-05T16:36:38.416Z,0.60
2019-03-05T16:39:13.137Z,0.90
2019-03-05T16:41:53.513Z,0.90
2019-03-05T16:44:28.853Z,1.37
2019-03-05T16:47:16.802Z,1.07
2019-03-05T16:50:09.966Z,1.47
2019-03-05T16:52:56.709Z,1.00
2019-03-05T16:55:43.613Z,1.30
2019-03-05T16:58:19.688Z,1.40
2019-03-05T17:01:16.727Z,1.03
2019-03-05T17:03:57.905Z,1.30
2019-03-05T17:06:48.173Z,1.50
2019-03-05T17:09:36.265Z,1.20
2019-03-05T17:12:05.182Z,1.17
2019-03-05T17:14:33.549Z,1.50
2019-03-05T17:17:02.492Z,1.10
2019-03-05T17:19:31.272Z,1.43
2019-03-05T17:22:00.424Z,2.20
2019-03-05T17:24:28.736Z,2.10
2019-03-05T17:26:57.190Z,2.97
2019-03-05T17:29:26.001Z,2.60
2019-03-05T17:31:54.385Z,2.70
2019-03-05T17:34:22.943Z,3.57
2019-03-05T17:36:51.338Z,2.33
2019-03-05T17:39:21.457Z,2.87
2019-03-05T17:41:49.854Z,1.93
2019-03-05T17:44:18.252Z,2.03
2019-03-05T17:46:46.777Z,1.73
2019-03-05T17:49:15.167Z,1.27
2019-03-05T17:51:43.536Z,1.00
2019-03-05T17:54:12.488Z,1.00
2019-03-05T17:56:41.497Z,1.40
2019-03-05T17:59:10.564Z,1.57
2019-03-05T18:01:39.475Z,1.27
2019-03-05T18:04:07.825Z,1.70
2019-03-05T18:06:36.212Z,1.30
2019-03-05T18:09:06.617Z,1.37
2019-03-05T18:11:35.013Z,1.37
2019-03-05T18:14:03.349Z,1.50
2019-03-05T18:16:31.728Z,1.83
2019-03-05T18:19:00.164Z,1.60
2019-03-05T18:21:28.470Z,1.70
2019-03-05T18:23:57.417Z,1.37
2019-03-05T18:26:26.328Z,1.30
2019-03-05T18:28:55.092Z,1.30
2019-03-05T18:31:23.970Z,1.57
2019-03-05T18:33:52.844Z,1.40
2019-03-05T18:36:21.333Z,1.33
2019-03-05T18:38:49.665Z,1.27
2019-03-05T18:41:18.506Z,1.17
2019-03-05T18:43:46.812Z,1.43
2019-03-05T18:46:15.672Z,1.40
2019-03-05T18:48:44.908Z,1.43
2019-03-05T18:51:13.672Z,1.43
2019-03-05T18:53:41.993Z,1.30
2019-03-05T18:56:11.420Z,0.90
2019-03-05T18:58:40.276Z,1.37
2019-03-05T19:01:09.780Z,0.60
2019-03-05T19:03:38.649Z,1.00
2019-03-05T19:06:07.563Z,0.80
2019-03-05T19:08:35.884Z,1.17
2019-03-05T19:11:04.300Z,1.40
2019-03-05T19:13:33.435Z,0.70
2019-03-05T19:16:01.824Z,0.53
2019-03-05T19:18:30.150Z,0.90
2019-03-05T19:20:58.988Z,0.70
2019-03-05T19:23:27.800Z,0.60
2019-03-05T19:25:56.836Z,0.77
2019-03-05T19:28:25.944Z,1.13
2019-03-05T19:30:54.793Z,0.63
2019-03-05T19:33:23.559Z,0.60
2019-03-05T19:35:52.396Z,0.97
2019-03-05T19:38:21.420Z,0.70
2019-03-05T19:40:49.820Z,1.13
2019-03-05T19:43:18.575Z,0.93
2019-03-05T19:45:47.361Z,0.90
2019-03-05T19:48:16.129Z,1.03
2019-03-05T19:50:45.274Z,0.80
2019-03-05T19:53:13.822Z,0.90
2019-03-05T19:55:42.596Z,0.67
2019-03-05T19:58:12.341Z,0.80
2019-03-05T20:00:50.056Z,0.57
2019-03-05T20:03:18.808Z,0.80
2019-03-05T20:05:47.713Z,1.00
2019-03-05T20:08:16.568Z,1.40
2019-03-05T20:10:45.394Z,1.03
2019-03-05T20:13:14.616Z,0.57
2019-03-05T20:15:43.466Z,0.93
2019-03-05T20:18:11.852Z,1.17
2019-03-05T20:20:40.971Z,0.80
2019-03-05T20:23:09.876Z,1.00
2019-03-05T20:25:39.169Z,1.30
2019-03-05T20:28:08.420Z,1.00
2019-03-05T20:30:38.261Z,0.97
2019-03-05T20:33:07.573Z,1.30
2019-03-05T20:35:36.615Z,1.03
2019-03-05T20:38:05.302Z,1.03
2019-03-05T20:40:33.628Z,0.90
2019-03-05T20:43:02.020Z,1.10
2019-03-05T20:45:30.332Z,0.77
2019-03-05T20:47:59.196Z,1.33
2019-03-05T20:50:28.118Z,1.03
2019-03-05T20:52:57.020Z,1.17
2019-03-05T20:55:25.932Z,0.80
2019-03-05T20:57:54.313Z,1.50
2019-03-05T21:00:26.084Z,1.13
2019-03-05T21:02:55.581Z,0.80
2019-03-05T21:05:25.253Z,1.00
2019-03-05T21:07:53.563Z,1.43
2019-03-05T21:10:21.940Z,0.90
2019-03-05T21:12:50.338Z,1.53
2019-03-05T21:15:18.996Z,1.00
2019-03-05T21:17:47.948Z,0.80
2019-03-05T21:20:16.328Z,0.87
2019-03-05T21:22:44.733Z,1.00
2019-03-05T21:25:13.405Z,1.00
2019-03-05T21:27:41.806Z,1.13
2019-03-05T21:30:11.456Z,0.60
2019-03-05T21:32:39.785Z,0.90
2019-03-05T21:35:08.449Z,0.70
2019-03-05T21:37:37.212Z,0.90
2019-03-05T21:40:06.211Z,1.10
2019-03-05T21:42:34.528Z,1.00
2019-03-05T21:45:04.051Z,1.93
2019-03-05T21:47:33.033Z,1.03
2019-03-05T21:50:01.332Z,1.10
2019-03-05T21:52:30.008Z,1.23
2019-03-05T21:54:58.384Z,1.00
2019-03-05T21:57:26.717Z,1.10
2019-03-05T21:59:55.876Z,1.50
2019-03-05T22:02:24.813Z,1.30
2019-03-05T22:04:53.206Z,1.13
2019-03-05T22:07:21.551Z,1.00
2019-03-05T22:09:50.385Z,1.17
2019-03-05T22:12:19.148Z,1.27
2019-03-05T22:14:47.541Z,1.50
2019-03-05T22:17:15.945Z,1.13
2019-03-05T22:19:44.792Z,1.53
2019-03-05T22:22:13.116Z,0.97
2019-03-05T22:24:41.880Z,1.43
2019-03-05T22:27:10.728Z,1.20
2019-03-05T22:29:39.496Z,1.47
2019-03-05T22:32:08.254Z,1.43
2019-03-05T22:34:37.048Z,1.43
2019-03-05T22:37:05.351Z,1.53
2019-03-05T22:39:33.676Z,1.50
2019-03-05T22:42:01.971Z,1.70
2019-03-05T22:44:30.300Z,1.93
2019-03-05T22:46:58.632Z,1.80
2019-03-05T22:49:27.419Z,1.67
2019-03-05T22:51:56.264Z,1.97
2019-03-05T22:54:24.667Z,2.30
2019-03-05T22:56:55.251Z,1.57
2019-03-05T22:59:24.052Z,2.10
2019-03-05T23:01:52.969Z,2.27
2019-03-05T23:04:27.658Z,1.80
2019-03-05T23:06:56.664Z,1.87
2019-03-05T23:09:25.670Z,2.43
2019-03-05T23:11:54.893Z,2.20
2019-03-05T23:14:24.214Z,2.50
2019-03-05T23:16:53.549Z,2.13
2019-03-05T23:19:22.929Z,3.00
2019-03-05T23:21:51.560Z,2.63
2019-03-05T23:24:20.462Z,2.60
2019-03-05T23:26:49.404Z,2.67
2019-03-05T23:29:19.947Z,2.67
2019-03-05T23:31:49.052Z,2.83
2019-03-05T23:34:18.602Z,2.87
2019-03-05T23:36:47.581Z,2.90
2019-03-05T23:39:16.757Z,3.07
2019-03-05T23:41:45.668Z,2.97
2019-03-05T23:44:14.294Z,2.90
2019-03-05T23:46:43.072Z,2.70
2019-03-05T23:49:12.006Z,3.00
2019-03-05T23:51:40.815Z,3.03
2019-03-05T23:54:09.741Z,2.93
2019-03-05T23:56:38.692Z,2.23
2019-03-05T23:59:07.475Z,2.50
